»·PEaware :: N526JT L52-KSBP

N526JT :: L52-KSBP

FLIGHT INFORMATION

Flight Status: Arrived
Operator: Privately registered:
United States
More flights under this callsign
Pilot: John Teixeira (14556)
Aircraft: CESSNA 172 SKYHAWK
(C172)
More flights by this aircraft type
Origin: L52 Oceano Co
United States
Destination: KSBP San Luis Co Regl
United States
More flights between these airports :: More routes between these airports
Route: L88
File this flight plan on PilotEdge
Remarks:
Altitude:
(Current/Filed)
7,500ft
Speed:
(Current/Filed)
110kts
Departed: 21-Apr-17 11:20 AM
Arrived: 21-Apr-17 12:28 PM
Distance/Time
Traveled:
8nm/1:07
Distance/Time
To Go:
Arrived

Flight Plot

Page will automatically refresh every two minutes.

Flight plan parsing failed; only flown route is shown


Map Options




Map Legend


Flown Route
Filed Route
Departure Airport
Arrival Airport
Navaid (VOR, NDB)
Fix

Horizontal Profiles

Position Reports

Time Latitude Longitude Heading Altitude Ground
Speed
21-Apr-17 11:15 35.103588 -120.624768 63 16ft 0kts
21-Apr-17 11:16 35.103328 -120.624164 131 16ft 4kts
21-Apr-17 11:17 35.103003 -120.623771 166 17ft 0kts
21-Apr-17 11:18 35.102861 -120.623828 213 17ft 0kts
21-Apr-17 11:19 35.102460 -120.624164 209 16ft 14kts
21-Apr-17 11:20 35.100292 -120.621075 122 17ft 18kts
21-Apr-17 11:21 35.099411 -120.619588 34 17ft 0kts
21-Apr-17 11:22 35.102540 -120.624655 300 145ft 67kts
21-Apr-17 11:23 35.102230 -120.646420 215 1051ft 90kts
21-Apr-17 11:24 35.081904 -120.628123 110 1213ft 112kts
21-Apr-17 11:25 35.077477 -120.595825 97 1785ft 100kts
21-Apr-17 11:26 35.068552 -120.566510 96 2513ft 86kts
21-Apr-17 11:27 35.059984 -120.538469 96 3172ft 89kts
21-Apr-17 11:28 35.051715 -120.510986 103 3835ft 87kts
21-Apr-17 11:29 35.045703 -120.484030 79 4424ft 80kts
21-Apr-17 11:30 35.036006 -120.457357 107 4961ft 94kts
21-Apr-17 11:31 35.026276 -120.431275 101 5603ft 84kts
21-Apr-17 11:32 35.015099 -120.405240 98 6152ft 86kts
21-Apr-17 11:33 35.005412 -120.377469 106 6660ft 92kts
21-Apr-17 11:34 34.995824 -120.348887 80 7149ft 85kts
21-Apr-17 11:35 34.990316 -120.322846 102 7587ft 92kts
21-Apr-17 11:36 34.980440 -120.290154 102 7574ft 116kts
21-Apr-17 11:37 34.968104 -120.252378 107 7568ft 117kts
21-Apr-17 11:38 34.957819 -120.215460 106 7569ft 119kts
21-Apr-17 11:39 34.945382 -120.178414 104 7567ft 117kts
21-Apr-17 11:40 34.933653 -120.142911 106 7560ft 109kts
21-Apr-17 11:41 34.922828 -120.108878 104 7557ft 108kts
21-Apr-17 11:42 34.912480 -120.074441 105 7550ft 108kts
21-Apr-17 11:43 34.904675 -120.036157 105 7546ft 123kts
21-Apr-17 11:44 34.900972 -119.993004 88 7536ft 132kts
21-Apr-17 11:45 34.905919 -119.948027 81 7131ft 134kts
21-Apr-17 11:46 34.910710 -119.905928 81 6484ft 119kts
21-Apr-17 11:47 34.915451 -119.866824 81 5841ft 115kts
21-Apr-17 11:48 34.918682 -119.828831 86 5197ft 113kts
21-Apr-17 11:49 34.912553 -119.791827 105 4566ft 111kts
21-Apr-17 11:50 34.903524 -119.756309 112 3924ft 109kts
21-Apr-17 11:51 34.893685 -119.723706 112 3378ft 101kts
21-Apr-17 11:52 34.883846 -119.691211 112 3584ft 115kts
21-Apr-17 11:53 34.883561 -119.656355 20 3553ft 102kts
21-Apr-17 11:54 34.907361 -119.665931 327 3572ft 90kts
21-Apr-17 11:55 34.926502 -119.684320 294 3560ft 87kts
21-Apr-17 11:56 34.939038 -119.709608 302 2970ft 87kts
21-Apr-17 11:57 34.947918 -119.705288 121 2347ft 73kts
21-Apr-17 11:58 34.940183 -119.686252 114 2187ft 74kts
21-Apr-17 11:59 34.929849 -119.669210 189 3136ft 75kts
21-Apr-17 12:00 34.929373 -119.690650 280 4092ft 74kts
21-Apr-17 12:01 34.937882 -119.713757 297 4910ft 88kts
21-Apr-17 12:02 34.950982 -119.740606 297 4817ft 89kts
21-Apr-17 12:03 34.964813 -119.767895 297 4553ft 103kts
21-Apr-17 12:04 34.980540 -119.799521 298 4380ft 119kts
21-Apr-17 12:05 34.995912 -119.832376 294 4347ft 109kts
21-Apr-17 12:06 35.009764 -119.865813 289 4349ft 113kts
21-Apr-17 12:07 35.022109 -119.902038 290 4372ft 116kts
21-Apr-17 12:08 35.034267 -119.937478 290 4425ft 111kts
21-Apr-17 12:09 35.045447 -119.972911 288 4375ft 115kts
21-Apr-17 12:10 35.058058 -120.008857 292 4351ft 114kts
21-Apr-17 12:11 35.070486 -120.044357 287 4358ft 115kts
21-Apr-17 12:12 35.079636 -120.082606 286 4366ft 120kts
21-Apr-17 12:13 35.086343 -120.122721 284 4370ft 120kts
21-Apr-17 12:14 35.091510 -120.162780 287 4370ft 115kts
21-Apr-17 12:15 35.095305 -120.200917 284 4376ft 113kts
21-Apr-17 12:16 35.098338 -120.238266 284 4373ft 105kts
21-Apr-17 12:16 35.100198 -120.264322 283 4374ft 93kts
21-Apr-17 12:18 35.105323 -120.299229 290 4377ft 90kts
21-Apr-17 12:18 35.109704 -120.324713 292 4385ft 98kts
21-Apr-17 12:20 35.116982 -120.364617 285 4381ft 108kts
21-Apr-17 12:20 35.120941 -120.395195 286 4387ft 110kts
21-Apr-17 12:22 35.126891 -120.438509 285 4386ft 111kts
21-Apr-17 12:22 35.133936 -120.468434 304 4389ft 109kts
21-Apr-17 12:24 35.153477 -120.504891 311 3998ft 105kts
21-Apr-17 12:24 35.169429 -120.527643 314 3282ft 111kts
21-Apr-17 12:25 35.188377 -120.556649 305 2422ft 106kts
21-Apr-17 12:26 35.203661 -120.582226 307 1651ft 88kts
21-Apr-17 12:27 35.217682 -120.606432 306 861ft 83kts
21-Apr-17 12:28 35.228882 -120.626457 308 456ft 68kts
21-Apr-17 12:29 35.237525 -120.641281 325 184ft 14kts
21-Apr-17 12:30 35.237832 -120.638372 61 184ft 17kts

Navigation Log

Ident Type
Flight plan parsing failed, navigation log unavailable